Rasht, Iran
Current Conditions -  °F | °C
As of 8:30 AM on Friday 28 Nov 2014 (Local Time) from OIGG Reporting Station
Drizzle Drizzle  
Wind Chill: 46°   Ceiling: 600
Heat Index: 48°   Visibility: 0.93mi
Dew Point: 48°   Wind: 5mph
Humidity: 100%   Direction: 240°WSW
Pressure: 30.21"   Gusts: NA
Location:  37.28°N, 49.58°E
Report Text: OIGG 280530Z 24004KT 1500 -DZ BKN006 OVC06009/09 Q1023
Loading
Personal Weather Stations






























Interactive Weather Map New forecast layout! Learn more

10-Day Weather Forecast

Advertisements
Track Severe Weather on mobile